createdAt,value
2022-07-30T00:01:48.113Z,100480.97
2022-07-30T00:04:17.556Z,100479.06
2022-07-30T00:06:46.977Z,100468.88
2022-07-30T00:09:16.437Z,100468.59
2022-07-30T00:11:45.880Z,100464.53
2022-07-30T00:14:15.312Z,100455.91
2022-07-30T00:16:44.869Z,100457.81
2022-07-30T00:19:16.966Z,100450.81
2022-07-30T00:21:47.952Z,100458.94
2022-07-30T00:24:17.407Z,100454.38
2022-07-30T00:26:46.832Z,100443.81
2022-07-30T00:29:16.294Z,100445.97
2022-07-30T00:31:45.757Z,100437.91
2022-07-30T00:34:17.784Z,100442.78
2022-07-30T00:36:47.211Z,100441.13
2022-07-30T00:39:16.685Z,100440.09
2022-07-30T00:41:59.329Z,100434.41
2022-07-30T00:44:28.979Z,100437.91
2022-07-30T00:46:58.857Z,100436.81
2022-07-30T00:49:31.294Z,100443.28
2022-07-30T00:52:00.732Z,100439.25
2022-07-30T00:54:30.187Z,100448.41
2022-07-30T00:56:59.857Z,100445.69
2022-07-30T00:59:31.655Z,100457.25
2022-07-30T01:02:01.897Z,100451.06
2022-07-30T01:04:34.029Z,100457.53
2022-07-30T01:07:03.561Z,100456.72
2022-07-30T01:09:33.327Z,100454.00
2022-07-30T01:12:02.759Z,100448.38
2022-07-30T01:14:32.386Z,100450.78
2022-07-30T01:17:02.248Z,100449.69
2022-07-30T01:19:52.626Z,100446.16
2022-07-30T01:22:32.602Z,100453.44
2022-07-30T01:25:08.987Z,100447.97
2022-07-30T01:27:43.023Z,100446.38
2022-07-30T01:30:13.349Z,100442.88
2022-07-30T01:32:45.176Z,100447.75
2022-07-30T01:35:14.829Z,100450.66
2022-07-30T01:37:44.439Z,100450.66
2022-07-30T01:40:14.969Z,100452.06
2022-07-30T01:42:47.129Z,100455.28
2022-07-30T01:45:16.619Z,100452.00
2022-07-30T01:47:46.049Z,100448.50
2022-07-30T01:50:16.409Z,100449.31
2022-07-30T01:52:49.133Z,100440.16
2022-07-30T01:55:20.023Z,100452.06
2022-07-30T01:57:52.117Z,100445.34
2022-07-30T02:00:21.629Z,100453.41
2022-07-30T02:02:51.116Z,100458.25
2022-07-30T02:05:20.562Z,100453.44
2022-07-30T02:07:54.089Z,100456.13
2022-07-30T02:10:26.844Z,100463.94
2022-07-30T02:13:00.783Z,100456.41
2022-07-30T02:15:32.787Z,100466.59
2022-07-30T02:18:04.056Z,100467.16
2022-07-30T02:20:35.832Z,100468.25
2022-07-30T02:23:09.701Z,100470.38
2022-07-30T02:25:39.198Z,100463.91
2022-07-30T02:28:12.545Z,100470.19
2022-07-30T02:30:44.926Z,100465.47
2022-07-30T02:33:14.371Z,100465.47
2022-07-30T02:35:43.961Z,100471.47
2022-07-30T02:38:13.382Z,100471.75
2022-07-30T02:40:43.385Z,100474.34
2022-07-30T02:43:16.963Z,100465.13
2022-07-30T02:45:46.737Z,100470.56
2022-07-30T02:48:34.971Z,100460.94
2022-07-30T02:51:04.933Z,100467.41
2022-07-30T02:53:34.390Z,100472.50
2022-07-30T02:56:03.840Z,100470.63
2022-07-30T02:58:35.873Z,100469.25
2022-07-30T03:01:05.373Z,100470.03
2022-07-30T03:03:34.965Z,100468.16
2022-07-30T03:06:05.353Z,100469.47
2022-07-30T03:08:34.861Z,100469.72
2022-07-30T03:11:04.295Z,100478.88
2022-07-30T03:13:36.478Z,100471.31
2022-07-30T03:16:06.420Z,100471.56
2022-07-30T03:18:37.131Z,100467.50
2022-07-30T03:21:06.670Z,100475.03
2022-07-30T03:23:37.674Z,100480.09
2022-07-30T03:26:08.589Z,100477.66
2022-07-30T03:28:41.798Z,100477.88
2022-07-30T03:31:11.802Z,100484.81
2022-07-30T03:33:41.446Z,100485.63
2022-07-30T03:36:11.349Z,100483.97
2022-07-30T03:38:40.906Z,100488.53
2022-07-30T03:41:10.469Z,100485.50
2022-07-30T03:43:42.931Z,100488.72
2022-07-30T03:46:12.606Z,100489.78
2022-07-30T03:48:42.134Z,100491.66
2022-07-30T03:51:12.764Z,100491.56
2022-07-30T03:53:42.854Z,100488.06
2022-07-30T03:56:12.319Z,100491.03
2022-07-30T03:58:44.300Z,100499.94
2022-07-30T04:01:13.738Z,100497.44
2022-07-30T04:03:43.203Z,100504.38
2022-07-30T04:06:12.688Z,100500.09
2022-07-30T04:08:42.136Z,100513.25
2022-07-30T04:11:11.591Z,100514.56
2022-07-30T04:13:41.020Z,100508.91
2022-07-30T04:16:39.549Z,100519.94
2022-07-30T04:19:04.835Z,100519.41
2022-07-30T04:21:34.299Z,100521.44
2022-07-30T04:24:05.589Z,100519.72
2022-07-30T04:26:36.837Z,100528.38
2022-07-30T04:29:07.194Z,100526.72
2022-07-30T04:31:40.851Z,100527.91
2022-07-30T04:34:10.964Z,100533.38
2022-07-30T04:36:40.402Z,100532.34
2022-07-30T04:39:10.082Z,100534.53
2022-07-30T04:41:49.515Z,100541.25
2022-07-30T04:44:20.321Z,100546.38
2022-07-30T04:46:52.417Z,100548.34
2022-07-30T04:49:21.997Z,100556.44
2022-07-30T04:51:51.561Z,100544.41
2022-07-30T04:54:21.013Z,100560.84
2022-07-30T04:56:53.740Z,100558.53
2022-07-30T04:59:24.282Z,100559.69
2022-07-30T05:01:56.415Z,100567.84
2022-07-30T05:04:25.998Z,100563.06
2022-07-30T05:06:55.488Z,100572.53
2022-07-30T05:09:25.063Z,100571.31
2022-07-30T05:11:54.873Z,100565.72
2022-07-30T05:14:24.402Z,100568.38
2022-07-30T05:16:56.577Z,100570.81
2022-07-30T05:19:26.236Z,100571.00
2022-07-30T05:21:56.207Z,100573.69
2022-07-30T05:24:25.690Z,100566.00
2022-07-30T05:26:55.202Z,100574.75
2022-07-30T05:29:24.632Z,100572.19
2022-07-30T05:31:56.681Z,100572.88
2022-07-30T05:34:32.177Z,100578.38
2022-07-30T05:37:01.979Z,100586.13
2022-07-30T05:39:31.777Z,100579.28
2022-07-30T05:42:02.059Z,100582.63
2022-07-30T05:44:31.512Z,100573.75
2022-07-30T05:47:03.714Z,100575.69
2022-07-30T05:49:33.277Z,100573.88
2022-07-30T05:52:02.721Z,100577.56
2022-07-30T05:54:35.710Z,100580.59
2022-07-30T05:57:05.525Z,100581.69
2022-07-30T05:59:35.175Z,100584.47
2022-07-30T06:02:07.625Z,100585.81
2022-07-30T06:04:37.603Z,100583.91
2022-07-30T06:07:15.779Z,100587.44
2022-07-30T06:09:45.384Z,100590.97
2022-07-30T06:12:15.042Z,100598.25
2022-07-30T06:14:44.536Z,100597.72
2022-07-30T06:17:16.556Z,100605.81
2022-07-30T06:19:46.042Z,100603.41
2022-07-30T06:22:15.496Z,100598.78
2022-07-30T06:24:44.907Z,100602.53
2022-07-30T06:27:14.342Z,100604.13
2022-07-30T06:29:43.891Z,100592.75
2022-07-30T06:32:15.899Z,100591.31
2022-07-30T06:34:45.321Z,100596.09
2022-07-30T06:37:14.778Z,100598.22
2022-07-30T06:39:57.585Z,100600.91
2022-07-30T06:42:29.015Z,100590.00
2022-07-30T06:44:58.459Z,100599.66
2022-07-30T06:47:31.420Z,100602.22
2022-07-30T06:50:00.872Z,100601.34
2022-07-30T06:52:30.303Z,100602.59
2022-07-30T06:54:59.725Z,100603.31
2022-07-30T06:57:29.173Z,100608.28
2022-07-30T07:00:00.069Z,100601.44
2022-07-30T07:02:32.101Z,100604.53
2022-07-30T07:05:01.926Z,100603.56
2022-07-30T07:07:41.214Z,100609.59
2022-07-30T07:10:11.537Z,100605.81
2022-07-30T07:12:41.600Z,100603.50
2022-07-30T07:15:12.464Z,100612.88
2022-07-30T07:17:44.557Z,100615.41
2022-07-30T07:20:14.582Z,100602.59
2022-07-30T07:22:44.013Z,100606.41
2022-07-30T07:25:14.587Z,100610.44
2022-07-30T07:27:44.128Z,100609.63
2022-07-30T07:30:33.561Z,100610.53
2022-07-30T07:33:05.610Z,100620.06
2022-07-30T07:35:48.440Z,100614.47
2022-07-30T07:38:18.870Z,100615.28
2022-07-30T07:40:48.435Z,100617.03
2022-07-30T07:43:18.167Z,100615.28
2022-07-30T07:45:47.942Z,100617.69
2022-07-30T07:48:20.468Z,100616.16
2022-07-30T07:50:49.901Z,100612.56
2022-07-30T07:53:19.352Z,100612.78
2022-07-30T07:55:48.773Z,100612.97
2022-07-30T07:58:26.269Z,100611.25
2022-07-30T08:00:56.110Z,100613.50
2022-07-30T08:03:28.499Z,100613.00
2022-07-30T08:06:04.743Z,100616.16
2022-07-30T08:08:37.115Z,100616.69
2022-07-30T08:11:07.897Z,100616.31
2022-07-30T08:13:49.243Z,100613.56
2022-07-30T08:16:22.325Z,100608.34
2022-07-30T08:18:54.413Z,100608.63
2022-07-30T08:21:23.850Z,100608.41
2022-07-30T08:23:53.325Z,100612.00
2022-07-30T08:26:22.808Z,100618.28
2022-07-30T08:28:54.377Z,100613.72
2022-07-30T08:31:24.127Z,100618.22
2022-07-30T08:33:56.153Z,100614.09
2022-07-30T08:36:26.054Z,100613.88
2022-07-30T08:38:55.607Z,100621.50
2022-07-30T08:41:25.049Z,100615.94
2022-07-30T08:43:54.516Z,100615.47
2022-07-30T08:46:25.294Z,100612.97
2022-07-30T08:48:57.161Z,100615.28
2022-07-30T08:51:26.741Z,100618.41
2022-07-30T08:53:56.436Z,100624.22
2022-07-30T08:56:25.949Z,100623.25
2022-07-30T08:58:55.413Z,100611.66
2022-07-30T09:01:24.995Z,100605.13
2022-07-30T09:03:57.050Z,100617.50
2022-07-30T09:06:26.655Z,100620.47
2022-07-30T09:08:56.156Z,100623.03
2022-07-30T09:11:25.572Z,100615.09
2022-07-30T09:13:55.040Z,100621.53
2022-07-30T09:16:25.097Z,100624.50
2022-07-30T09:18:57.163Z,100629.13
2022-07-30T09:21:28.440Z,100623.44
2022-07-30T09:23:59.067Z,100621.22
2022-07-30T09:26:29.210Z,100616.22
2022-07-30T09:28:58.793Z,100622.34
2022-07-30T09:34:29.452Z,100630.44
2022-07-30T09:36:59.480Z,100628.28
2022-07-30T09:39:32.937Z,100624.69
2022-07-30T09:42:02.867Z,100629.81
2022-07-30T09:44:32.998Z,100631.47
2022-07-30T09:47:03.055Z,100638.22
2022-07-30T09:49:35.392Z,100629.56
2022-07-30T09:52:04.817Z,100626.25
2022-07-30T09:54:51.432Z,100632.66
2022-07-30T09:57:25.656Z,100641.44
2022-07-30T09:59:57.414Z,100644.25
2022-07-30T10:02:33.728Z,100638.09
2022-07-30T10:05:16.387Z,100637.16
2022-07-30T10:07:53.070Z,100642.22
2022-07-30T10:10:25.251Z,100638.03
2022-07-30T10:12:56.746Z,100632.00
2022-07-30T10:15:27.660Z,100624.59
2022-07-30T10:17:57.155Z,100621.72
2022-07-30T10:20:29.393Z,100619.53
2022-07-30T10:22:59.365Z,100617.66
2022-07-30T10:25:29.242Z,100620.94
2022-07-30T10:27:58.898Z,100615.59
2022-07-30T10:30:32.327Z,100615.94
2022-07-30T10:33:02.879Z,100612.16
2022-07-30T10:35:38.381Z,100604.91
2022-07-30T10:38:13.762Z,100605.84
2022-07-30T10:40:46.070Z,100598.56
2022-07-30T10:43:49.018Z,100606.19
2022-07-30T10:46:22.994Z,100590.22
2022-07-30T10:48:52.739Z,100593.44
2022-07-30T10:51:25.428Z,100585.09
2022-07-30T10:54:04.089Z,100580.53
2022-07-30T10:56:33.545Z,100568.47
2022-07-30T10:59:04.156Z,100576.22
2022-07-30T11:02:06.892Z,100563.00
2022-07-30T11:04:36.625Z,100564.47
2022-07-30T11:07:33.479Z,100562.72
2022-07-30T11:10:08.716Z,100572.94
2022-07-30T11:12:54.467Z,100558.81
2022-07-30T11:15:24.401Z,100561.47
2022-07-30T11:18:01.616Z,100560.72
2022-07-30T11:20:31.090Z,100558.09
2022-07-30T11:23:14.491Z,100560.34
2022-07-30T11:25:51.754Z,100564.50
2022-07-30T11:28:49.378Z,100565.44
2022-07-30T11:31:54.874Z,100555.22
2022-07-30T11:34:30.658Z,100562.38
2022-07-30T11:37:19.111Z,100560.59
2022-07-30T11:40:13.477Z,100563.19
2022-07-30T11:42:44.705Z,100551.72
2022-07-30T11:45:30.920Z,100554.03
2022-07-30T11:48:00.947Z,100547.47
2022-07-30T11:50:32.093Z,100541.06
2022-07-30T11:53:04.314Z,100543.41
2022-07-30T11:55:37.334Z,100541.72
2022-07-30T11:58:07.871Z,100545.50
2022-07-30T12:00:37.743Z,100535.03
2022-07-30T12:03:13.928Z,100537.94
2022-07-30T12:05:43.594Z,100545.72
2022-07-30T12:08:34.078Z,100533.88
2022-07-30T12:11:05.928Z,100525.06
2022-07-30T12:13:44.107Z,100524.50
2022-07-30T12:16:16.604Z,100529.25
2022-07-30T12:18:46.387Z,100530.06
2022-07-30T12:21:16.323Z,100522.53
2022-07-30T12:23:46.062Z,100516.50
2022-07-30T12:26:26.721Z,100526.09
2022-07-30T12:28:56.580Z,100518.09
2022-07-30T12:31:26.031Z,100516.81
2022-07-30T12:33:58.359Z,100514.03
2022-07-30T12:36:30.935Z,100524.56
2022-07-30T12:39:00.839Z,100516.69
2022-07-30T12:41:46.218Z,100515.34
2022-07-30T12:44:36.554Z,100517.78
2022-07-30T12:47:06.705Z,100526.53
2022-07-30T12:49:48.828Z,100520.22
2022-07-30T12:52:27.919Z,100518.03
2022-07-30T12:55:06.643Z,100514.75
2022-07-30T12:58:05.474Z,100521.38
2022-07-30T13:00:52.201Z,100517.75
2022-07-30T13:03:26.179Z,100513.16
2022-07-30T13:05:56.289Z,100508.47
2022-07-30T13:08:56.000Z,100505.41
2022-07-30T13:11:26.431Z,100507.22
2022-07-30T13:13:58.190Z,100514.88
2022-07-30T13:16:27.617Z,100510.66
2022-07-30T13:18:57.036Z,100510.91
2022-07-30T13:21:26.576Z,100506.34
2022-07-30T13:23:56.005Z,100503.13
2022-07-30T13:26:25.551Z,100502.09
2022-07-30T13:28:57.610Z,100497.38
2022-07-30T13:31:42.996Z,100501.25
2022-07-30T13:34:12.769Z,100504.22
2022-07-30T13:36:43.040Z,100502.19
2022-07-30T13:39:12.610Z,100499.47
2022-07-30T13:41:42.119Z,100495.03
2022-07-30T13:44:11.693Z,100484.84
2022-07-30T13:46:43.965Z,100494.13
2022-07-30T13:49:13.468Z,100485.44
2022-07-30T13:51:43.015Z,100478.72
2022-07-30T13:54:13.971Z,100478.72
2022-07-30T13:56:43.468Z,100481.25
2022-07-30T13:59:12.904Z,100473.31
2022-07-30T14:01:45.053Z,100484.63
2022-07-30T14:04:14.592Z,100482.69
2022-07-30T14:06:44.187Z,100482.09
2022-07-30T14:09:13.620Z,100469.06
2022-07-30T14:11:43.065Z,100471.03
2022-07-30T14:14:13.007Z,100469.31
2022-07-30T14:16:46.656Z,100464.16
2022-07-30T14:19:23.139Z,100465.31
2022-07-30T14:21:53.853Z,100466.13
2022-07-30T14:24:23.352Z,100461.31
2022-07-30T14:26:57.692Z,100452.97
2022-07-30T14:29:28.785Z,100456.66
2022-07-30T14:32:00.813Z,100450.41
2022-07-30T14:34:30.253Z,100459.91
2022-07-30T14:36:59.831Z,100456.47
2022-07-30T14:39:30.020Z,100471.34
2022-07-30T14:41:59.505Z,100459.94
2022-07-30T14:44:28.949Z,100452.53
2022-07-30T14:47:00.966Z,100458.34
2022-07-30T14:49:30.736Z,100468.16
2022-07-30T14:52:00.921Z,100463.50
2022-07-30T14:54:31.363Z,100463.00
2022-07-30T14:57:00.891Z,100457.88
2022-07-30T14:59:30.632Z,100451.44
2022-07-30T15:02:02.883Z,100454.31
2022-07-30T15:04:32.460Z,100455.66
2022-07-30T15:07:02.108Z,100452.94
2022-07-30T15:09:31.552Z,100448.69
2022-07-30T15:12:18.008Z,100461.16
2022-07-30T15:14:50.405Z,100445.41
2022-07-30T15:17:24.447Z,100458.13
2022-07-30T15:19:53.889Z,100454.09
2022-07-30T15:22:23.331Z,100447.75
2022-07-30T15:24:52.786Z,100464.88
2022-07-30T15:27:33.223Z,100461.16
2022-07-30T15:30:03.301Z,100453.25
2022-07-30T15:32:38.083Z,100452.59
2022-07-30T15:35:13.429Z,100455.06
2022-07-30T15:37:43.784Z,100456.50
2022-07-30T15:40:13.504Z,100456.28
2022-07-30T15:42:43.161Z,100459.81
2022-07-30T15:45:17.775Z,100462.81
2022-07-30T15:47:50.206Z,100457.06
2022-07-30T15:50:19.895Z,100467.25
2022-07-30T15:52:49.362Z,100466.69
2022-07-30T15:55:19.204Z,100472.97
2022-07-30T15:57:48.693Z,100462.34
2022-07-30T16:00:18.416Z,100464.31
2022-07-30T16:02:50.568Z,100472.94
2022-07-30T16:05:20.014Z,100468.72
2022-07-30T16:07:49.442Z,100469.09
2022-07-30T16:10:18.911Z,100472.94
2022-07-30T16:12:48.328Z,100464.78
2022-07-30T16:15:17.744Z,100470.91
2022-07-30T16:17:49.759Z,100464.63
2022-07-30T16:20:19.169Z,100465.66
2022-07-30T16:22:48.624Z,100462.38
2022-07-30T16:25:18.075Z,100464.63
2022-07-30T16:27:47.510Z,100459.84
2022-07-30T16:30:16.940Z,100460.69
2022-07-30T16:32:46.398Z,100453.94
2022-07-30T16:35:18.496Z,100450.38
2022-07-30T16:37:47.918Z,100455.41
2022-07-30T16:40:17.385Z,100449.19
2022-07-30T16:42:46.907Z,100456.16
2022-07-30T16:45:17.604Z,100470.31
2022-07-30T16:47:48.496Z,100468.09
2022-07-30T16:50:20.520Z,100472.28
2022-07-30T16:52:49.958Z,100472.03
2022-07-30T16:55:19.486Z,100469.13
2022-07-30T16:57:48.906Z,100472.72
2022-07-30T17:00:18.883Z,100472.53
2022-07-30T17:02:48.308Z,100474.19
2022-07-30T17:05:20.458Z,100472.47
2022-07-30T17:07:49.909Z,100477.81
2022-07-30T17:10:25.491Z,100481.56
2022-07-30T17:12:57.215Z,100471.41
2022-07-30T17:15:31.929Z,100479.41
2022-07-30T17:18:02.455Z,100484.75
2022-07-30T17:20:34.528Z,100493.00
2022-07-30T17:23:03.959Z,100480.50
2022-07-30T17:25:33.464Z,100484.25
2022-07-30T17:28:02.895Z,100491.13
2022-07-30T17:30:32.429Z,100490.53
2022-07-30T17:33:02.017Z,100487.16
2022-07-30T17:35:34.280Z,100494.06
2022-07-30T17:38:03.792Z,100486.69
2022-07-30T17:40:33.348Z,100488.50
2022-07-30T17:43:07.457Z,100488.69
2022-07-30T17:45:37.816Z,100496.38
2022-07-30T17:48:08.165Z,100497.34
2022-07-30T17:50:40.188Z,100493.97
2022-07-30T17:53:09.826Z,100494.59
2022-07-30T17:55:39.274Z,100498.47
2022-07-30T17:58:08.743Z,100496.19
2022-07-30T18:00:38.205Z,100497.81
2022-07-30T18:03:07.670Z,100502.88
2022-07-30T18:05:39.775Z,100507.34
2022-07-30T18:08:09.219Z,100502.72
2022-07-30T18:10:38.671Z,100500.00
2022-07-30T18:13:25.940Z,100506.19
2022-07-30T18:15:56.744Z,100499.91
2022-07-30T18:18:26.232Z,100515.59
2022-07-30T18:20:58.243Z,100509.53
2022-07-30T18:23:32.445Z,100511.47
2022-07-30T18:26:04.363Z,100514.03
2022-07-30T18:28:33.970Z,100513.72
2022-07-30T18:31:03.418Z,100513.53
2022-07-30T18:33:32.852Z,100521.34
2022-07-30T18:36:05.026Z,100514.00
2022-07-30T18:38:34.441Z,100518.31
2022-07-30T18:41:04.000Z,100514.44
2022-07-30T18:43:47.823Z,100521.31
2022-07-30T18:46:18.004Z,100531.03
2022-07-30T18:48:48.556Z,100527.31
2022-07-30T18:51:25.068Z,100521.84
2022-07-30T18:53:54.912Z,100532.22
2022-07-30T18:56:24.357Z,100525.22
2022-07-30T18:58:53.786Z,100533.16
2022-07-30T19:01:24.289Z,100530.34
2022-07-30T19:03:53.849Z,100539.09
2022-07-30T19:06:25.941Z,100532.19
2022-07-30T19:08:55.391Z,100543.19
2022-07-30T19:11:24.867Z,100547.72
2022-07-30T19:13:54.295Z,100550.44
2022-07-30T19:16:24.052Z,100556.00
2022-07-30T19:18:53.513Z,100552.09
2022-07-30T19:21:25.628Z,100555.59
2022-07-30T19:23:55.063Z,100553.81
2022-07-30T19:26:24.623Z,100562.19
2022-07-30T19:28:54.186Z,100565.31
2022-07-30T19:31:23.631Z,100568.50
2022-07-30T19:33:53.067Z,100578.31
2022-07-30T19:36:25.220Z,100588.19
2022-07-30T19:38:58.328Z,100589.50
2022-07-30T19:41:27.925Z,100588.09
2022-07-30T19:44:00.305Z,100591.94
2022-07-30T19:46:29.746Z,100593.84
2022-07-30T19:48:59.420Z,100599.25
2022-07-30T19:52:09.767Z,100590.53
2022-07-30T19:54:21.713Z,100592.22
2022-07-30T19:56:51.242Z,100597.38
2022-07-30T19:59:57.878Z,100599.88
2022-07-30T20:02:10.585Z,100601.50
2022-07-30T20:04:43.595Z,100598.06
2022-07-30T20:07:15.897Z,100603.31
2022-07-30T20:09:45.335Z,100603.00
2022-07-30T20:12:18.075Z,100605.91
2022-07-30T20:14:47.514Z,100602.69
2022-07-30T20:17:18.465Z,100608.22
2022-07-30T20:19:48.711Z,100608.94
2022-07-30T20:22:20.782Z,100600.88
2022-07-30T20:24:50.985Z,100602.53
2022-07-30T20:27:35.702Z,100602.97
2022-07-30T20:30:06.735Z,100605.69
2022-07-30T20:32:36.548Z,100603.53
2022-07-30T20:35:06.067Z,100609.47
2022-07-30T20:37:40.212Z,100605.75
2022-07-30T20:40:24.657Z,100609.44
2022-07-30T20:42:56.351Z,100602.13
2022-07-30T20:45:40.199Z,100611.13
2022-07-30T20:48:17.365Z,100611.56
2022-07-30T20:50:55.148Z,100612.84
2022-07-30T20:53:33.693Z,100616.66
2022-07-30T20:56:09.128Z,100619.38
2022-07-30T20:58:40.180Z,100624.88
2022-07-30T21:01:15.737Z,100630.59
2022-07-30T21:03:47.694Z,100627.50
2022-07-30T21:06:28.554Z,100630.81
2022-07-30T21:09:24.118Z,100628.50
2022-07-30T21:11:56.496Z,100626.41
2022-07-30T21:14:25.992Z,100618.75
2022-07-30T21:16:56.250Z,100630.72
2022-07-30T21:19:25.810Z,100614.31
2022-07-30T21:21:58.527Z,100627.06
2022-07-30T21:24:30.540Z,100628.97
2022-07-30T21:27:00.006Z,100628.69
2022-07-30T21:29:30.181Z,100623.72
2022-07-30T21:32:01.571Z,100630.53
2022-07-30T21:34:40.296Z,100626.78
2022-07-30T21:37:13.008Z,100630.53
2022-07-30T21:39:47.608Z,100627.13
2022-07-30T21:42:17.046Z,100622.31
2022-07-30T21:44:55.589Z,100626.34
2022-07-30T21:47:25.101Z,100636.25
2022-07-30T21:49:55.545Z,100636.81
2022-07-30T21:52:25.333Z,100644.78
2022-07-30T21:54:57.396Z,100642.84
2022-07-30T21:57:34.561Z,100644.59
2022-07-30T22:00:06.071Z,100645.44
2022-07-30T22:02:38.547Z,100644.09
2022-07-30T22:05:38.831Z,100638.44
2022-07-30T22:08:08.679Z,100643.84
2022-07-30T22:10:42.637Z,100643.41
2022-07-30T22:13:12.131Z,100645.13
2022-07-30T22:15:42.584Z,100637.59
2022-07-30T22:18:12.048Z,100641.59
2022-07-30T22:20:41.685Z,100628.25
2022-07-30T22:23:11.773Z,100646.94
2022-07-30T22:25:45.005Z,100644.06
2022-07-30T22:28:14.849Z,100641.28
2022-07-30T22:30:46.192Z,100644.00
2022-07-30T22:33:17.209Z,100642.09
2022-07-30T22:35:49.797Z,100654.84
2022-07-30T22:38:19.864Z,100650.00
2022-07-30T22:40:51.965Z,100647.81
2022-07-30T22:43:21.477Z,100653.56
2022-07-30T22:45:51.085Z,100646.47
2022-07-30T22:48:26.914Z,100643.28
2022-07-30T22:50:58.834Z,100640.50
2022-07-30T22:54:03.532Z,100642.19
2022-07-30T22:56:24.016Z,100647.72
2022-07-30T22:58:53.603Z,100641.97
2022-07-30T23:01:23.520Z,100640.06
2022-07-30T23:03:52.944Z,100639.53
2022-07-30T23:06:23.368Z,100638.22
2022-07-30T23:08:53.107Z,100637.44
2022-07-30T23:11:25.156Z,100639.59
2022-07-30T23:14:06.601Z,100638.22
2022-07-30T23:16:36.031Z,100636.59
2022-07-30T23:19:05.592Z,100643.91
2022-07-30T23:21:35.144Z,100640.97
2022-07-30T23:24:04.817Z,100635.06
2022-07-30T23:26:36.823Z,100630.22
2022-07-30T23:29:06.260Z,100628.53
2022-07-30T23:31:42.903Z,100636.16
2022-07-30T23:34:13.025Z,100621.06
2022-07-30T23:36:42.592Z,100629.53
2022-07-30T23:39:12.160Z,100622.81
2022-07-30T23:41:44.198Z,100628.34
2022-07-30T23:44:13.645Z,100624.81
2022-07-30T23:46:43.102Z,100627.56
2022-07-30T23:49:12.853Z,100628.94
2022-07-30T23:51:42.292Z,100629.53
2022-07-30T23:54:11.729Z,100631.50
2022-07-30T23:56:44.544Z,100633.91
2022-07-30T23:59:15.272Z,100639.84
